sensor_id;sensor_type;location;lat;lon;timestamp;P1;durP1;ratioP1;P2;durP2;ratioP2
75887;SDS011;64562;55.662;37.300;2022-11-20T00:00:03;4.43;;;2.83;;
75887;SDS011;64562;55.662;37.300;2022-11-20T00:02:30;4.15;;;2.80;;
75887;SDS011;64562;55.662;37.300;2022-11-20T00:04:57;3.50;;;2.47;;
75887;SDS011;64562;55.662;37.300;2022-11-20T00:07:24;3.10;;;2.42;;
75887;SDS011;64562;55.662;37.300;2022-11-20T00:09:50;3.60;;;2.60;;
75887;SDS011;64562;55.662;37.300;2022-11-20T00:12:18;4.38;;;2.83;;
75887;SDS011;64562;55.662;37.300;2022-11-20T00:14:45;3.65;;;2.38;;
75887;SDS011;64562;55.662;37.300;2022-11-20T00:17:11;3.78;;;2.55;;
75887;SDS011;64562;55.662;37.300;2022-11-20T00:19:38;4.57;;;2.80;;
75887;SDS011;64562;55.662;37.300;2022-11-20T00:22:05;3.47;;;2.53;;
75887;SDS011;64562;55.662;37.300;2022-11-20T00:24:31;4.75;;;2.83;;
75887;SDS011;64562;55.662;37.300;2022-11-20T00:26:58;5.20;;;2.92;;
75887;SDS011;64562;55.662;37.300;2022-11-20T00:29:26;5.00;;;2.80;;
75887;SDS011;64562;55.662;37.300;2022-11-20T00:31:52;4.95;;;2.63;;
75887;SDS011;64562;55.662;37.300;2022-11-20T00:34:19;3.88;;;2.60;;
75887;SDS011;64562;55.662;37.300;2022-11-20T00:36:46;3.67;;;2.70;;
75887;SDS011;64562;55.662;37.300;2022-11-20T00:39:12;3.88;;;2.33;;
75887;SDS011;64562;55.662;37.300;2022-11-20T00:41:39;3.38;;;2.17;;
75887;SDS011;64562;55.662;37.300;2022-11-20T00:44:05;4.43;;;2.65;;
75887;SDS011;64562;55.662;37.300;2022-11-20T00:46:33;4.28;;;2.63;;
75887;SDS011;64562;55.662;37.300;2022-11-20T00:49:00;4.43;;;2.58;;
75887;SDS011;64562;55.662;37.300;2022-11-20T00:51:27;4.43;;;2.67;;
75887;SDS011;64562;55.662;37.300;2022-11-20T00:53:54;4.20;;;2.53;;
75887;SDS011;64562;55.662;37.300;2022-11-20T00:56:21;3.42;;;2.30;;
75887;SDS011;64562;55.662;37.300;2022-11-20T00:58:48;4.57;;;2.75;;
75887;SDS011;64562;55.662;37.300;2022-11-20T01:01:15;4.75;;;2.53;;
75887;SDS011;64562;55.662;37.300;2022-11-20T01:03:44;3.88;;;2.67;;
75887;SDS011;64562;55.662;37.300;2022-11-20T01:06:12;4.15;;;2.70;;
75887;SDS011;64562;55.662;37.300;2022-11-20T01:08:39;4.10;;;2.60;;
75887;SDS011;64562;55.662;37.300;2022-11-20T01:11:06;4.82;;;2.63;;
75887;SDS011;64562;55.662;37.300;2022-11-20T01:13:33;3.67;;;2.60;;
75887;SDS011;64562;55.662;37.300;2022-11-20T01:16:04;4.47;;;2.65;;
75887;SDS011;64562;55.662;37.300;2022-11-20T01:18:31;4.57;;;2.95;;
75887;SDS011;64562;55.662;37.300;2022-11-20T01:21:01;4.80;;;3.22;;
75887;SDS011;64562;55.662;37.300;2022-11-20T01:23:30;4.35;;;2.60;;
75887;SDS011;64562;55.662;37.300;2022-11-20T01:25:56;4.30;;;2.97;;
75887;SDS011;64562;55.662;37.300;2022-11-20T01:28:23;4.40;;;3.13;;
75887;SDS011;64562;55.662;37.300;2022-11-20T01:30:50;3.60;;;2.63;;
75887;SDS011;64562;55.662;37.300;2022-11-20T01:33:16;5.13;;;2.92;;
75887;SDS011;64562;55.662;37.300;2022-11-20T01:35:43;3.55;;;2.65;;
75887;SDS011;64562;55.662;37.300;2022-11-20T01:38:12;3.55;;;2.63;;
75887;SDS011;64562;55.662;37.300;2022-11-20T01:40:39;4.13;;;2.85;;
75887;SDS011;64562;55.662;37.300;2022-11-20T01:43:09;4.22;;;3.28;;
75887;SDS011;64562;55.662;37.300;2022-11-20T01:45:56;3.88;;;2.58;;
75887;SDS011;64562;55.662;37.300;2022-11-20T01:48:23;4.15;;;3.13;;
75887;SDS011;64562;55.662;37.300;2022-11-20T01:50:50;5.32;;;3.05;;
75887;SDS011;64562;55.662;37.300;2022-11-20T01:53:20;5.13;;;3.17;;
75887;SDS011;64562;55.662;37.300;2022-11-20T01:55:48;4.10;;;2.60;;
75887;SDS011;64562;55.662;37.300;2022-11-20T01:58:16;3.63;;;2.78;;
75887;SDS011;64562;55.662;37.300;2022-11-20T02:00:43;4.32;;;2.90;;
75887;SDS011;64562;55.662;37.300;2022-11-20T02:03:11;3.65;;;2.90;;
75887;SDS011;64562;55.662;37.300;2022-11-20T02:05:40;4.03;;;2.90;;
75887;SDS011;64562;55.662;37.300;2022-11-20T02:08:08;4.57;;;3.22;;
75887;SDS011;64562;55.662;37.300;2022-11-20T02:10:36;4.30;;;3.30;;
75887;SDS011;64562;55.662;37.300;2022-11-20T02:13:03;4.45;;;2.97;;
75887;SDS011;64562;55.662;37.300;2022-11-20T02:15:46;4.93;;;2.97;;
75887;SDS011;64562;55.662;37.300;2022-11-20T02:18:13;4.70;;;2.83;;
75887;SDS011;64562;55.662;37.300;2022-11-20T02:20:40;3.60;;;2.55;;
75887;SDS011;64562;55.662;37.300;2022-11-20T02:23:09;4.10;;;2.80;;
75887;SDS011;64562;55.662;37.300;2022-11-20T02:25:38;4.97;;;2.53;;
75887;SDS011;64562;55.662;37.300;2022-11-20T02:28:05;4.32;;;3.05;;
75887;SDS011;64562;55.662;37.300;2022-11-20T02:30:32;4.63;;;3.15;;
75887;SDS011;64562;55.662;37.300;2022-11-20T02:32:59;3.95;;;2.42;;
75887;SDS011;64562;55.662;37.300;2022-11-20T02:35:41;5.25;;;2.70;;
75887;SDS011;64562;55.662;37.300;2022-11-20T02:38:08;4.38;;;3.20;;
75887;SDS011;64562;55.662;37.300;2022-11-20T02:40:36;4.25;;;2.80;;
75887;SDS011;64562;55.662;37.300;2022-11-20T02:43:04;3.50;;;2.70;;
75887;SDS011;64562;55.662;37.300;2022-11-20T02:45:30;5.13;;;2.75;;
75887;SDS011;64562;55.662;37.300;2022-11-20T02:47:57;3.92;;;2.78;;
75887;SDS011;64562;55.662;37.300;2022-11-20T02:50:24;4.35;;;2.70;;
75887;SDS011;64562;55.662;37.300;2022-11-20T02:52:50;3.80;;;2.80;;
75887;SDS011;64562;55.662;37.300;2022-11-20T02:55:17;5.93;;;2.88;;
75887;SDS011;64562;55.662;37.300;2022-11-20T02:57:44;6.55;;;3.33;;
75887;SDS011;64562;55.662;37.300;2022-11-20T03:00:13;4.28;;;2.42;;
75887;SDS011;64562;55.662;37.300;2022-11-20T03:02:39;4.43;;;2.90;;
75887;SDS011;64562;55.662;37.300;2022-11-20T03:05:06;3.83;;;3.08;;
75887;SDS011;64562;55.662;37.300;2022-11-20T03:07:33;4.07;;;2.60;;
75887;SDS011;64562;55.662;37.300;2022-11-20T03:10:00;3.33;;;2.40;;
75887;SDS011;64562;55.662;37.300;2022-11-20T03:12:26;3.55;;;2.90;;
75887;SDS011;64562;55.662;37.300;2022-11-20T03:14:53;4.07;;;2.70;;
75887;SDS011;64562;55.662;37.300;2022-11-20T03:17:21;3.90;;;2.80;;
75887;SDS011;64562;55.662;37.300;2022-11-20T03:19:48;3.33;;;2.80;;
75887;SDS011;64562;55.662;37.300;2022-11-20T03:22:14;3.78;;;2.80;;
75887;SDS011;64562;55.662;37.300;2022-11-20T03:24:41;4.70;;;2.90;;
75887;SDS011;64562;55.662;37.300;2022-11-20T03:27:07;5.18;;;2.88;;
75887;SDS011;64562;55.662;37.300;2022-11-20T03:29:34;4.43;;;2.80;;
75887;SDS011;64562;55.662;37.300;2022-11-20T03:32:01;4.13;;;2.80;;
75887;SDS011;64562;55.662;37.300;2022-11-20T03:34:29;4.95;;;3.10;;
75887;SDS011;64562;55.662;37.300;2022-11-20T03:36:55;3.83;;;2.83;;
75887;SDS011;64562;55.662;37.300;2022-11-20T03:39:22;3.97;;;2.67;;
75887;SDS011;64562;55.662;37.300;2022-11-20T03:41:49;3.53;;;2.67;;
75887;SDS011;64562;55.662;37.300;2022-11-20T03:44:15;4.18;;;2.55;;
75887;SDS011;64562;55.662;37.300;2022-11-20T03:46:42;3.70;;;2.38;;
75887;SDS011;64562;55.662;37.300;2022-11-20T03:49:08;3.65;;;2.75;;
75887;SDS011;64562;55.662;37.300;2022-11-20T03:51:36;3.45;;;2.60;;
75887;SDS011;64562;55.662;37.300;2022-11-20T03:54:04;3.33;;;2.63;;
75887;SDS011;64562;55.662;37.300;2022-11-20T03:56:31;3.60;;;2.58;;
75887;SDS011;64562;55.662;37.300;2022-11-20T03:58:58;3.55;;;2.63;;
75887;SDS011;64562;55.662;37.300;2022-11-20T04:01:25;4.53;;;2.97;;
75887;SDS011;64562;55.662;37.300;2022-11-20T04:03:52;4.57;;;2.70;;
75887;SDS011;64562;55.662;37.300;2022-11-20T04:06:20;3.83;;;3.00;;
75887;SDS011;64562;55.662;37.300;2022-11-20T04:08:49;3.72;;;2.55;;
75887;SDS011;64562;55.662;37.300;2022-11-20T04:11:16;3.58;;;2.83;;
75887;SDS011;64562;55.662;37.300;2022-11-20T04:13:46;3.90;;;2.70;;
75887;SDS011;64562;55.662;37.300;2022-11-20T04:16:12;4.22;;;2.47;;
75887;SDS011;64562;55.662;37.300;2022-11-20T04:18:39;3.75;;;2.60;;
75887;SDS011;64562;55.662;37.300;2022-11-20T04:21:06;3.17;;;2.55;;
75887;SDS011;64562;55.662;37.300;2022-11-20T04:23:33;4.45;;;2.75;;
75887;SDS011;64562;55.662;37.300;2022-11-20T04:26:04;3.33;;;2.65;;
75887;SDS011;64562;55.662;37.300;2022-11-20T04:28:31;3.45;;;2.30;;
75887;SDS011;64562;55.662;37.300;2022-11-20T04:31:01;3.38;;;2.33;;
75887;SDS011;64562;55.662;37.300;2022-11-20T04:33:28;4.30;;;2.75;;
75887;SDS011;64562;55.662;37.300;2022-11-20T04:35:54;4.05;;;2.67;;
75887;SDS011;64562;55.662;37.300;2022-11-20T04:38:21;3.53;;;2.60;;
75887;SDS011;64562;55.662;37.300;2022-11-20T04:40:48;3.42;;;2.58;;
75887;SDS011;64562;55.662;37.300;2022-11-20T04:43:16;4.03;;;2.78;;
75887;SDS011;64562;55.662;37.300;2022-11-20T04:45:42;3.97;;;2.30;;
75887;SDS011;64562;55.662;37.300;2022-11-20T04:48:09;4.80;;;2.72;;
75887;SDS011;64562;55.662;37.300;2022-11-20T04:50:39;4.03;;;2.72;;
75887;SDS011;64562;55.662;37.300;2022-11-20T04:53:06;3.70;;;2.28;;
75887;SDS011;64562;55.662;37.300;2022-11-20T04:55:32;5.22;;;2.70;;
75887;SDS011;64562;55.662;37.300;2022-11-20T04:57:59;5.13;;;2.80;;
75887;SDS011;64562;55.662;37.300;2022-11-20T05:00:27;4.15;;;2.80;;
75887;SDS011;64562;55.662;37.300;2022-11-20T05:02:53;3.97;;;2.75;;
75887;SDS011;64562;55.662;37.300;2022-11-20T05:05:20;4.50;;;2.50;;
75887;SDS011;64562;55.662;37.300;2022-11-20T05:07:47;3.80;;;2.65;;
75887;SDS011;64562;55.662;37.300;2022-11-20T05:10:14;3.65;;;2.25;;
75887;SDS011;64562;55.662;37.300;2022-11-20T05:12:41;4.55;;;2.97;;
75887;SDS011;64562;55.662;37.300;2022-11-20T05:15:07;3.90;;;2.70;;
75887;SDS011;64562;55.662;37.300;2022-11-20T05:17:36;4.85;;;3.05;;
75887;SDS011;64562;55.662;37.300;2022-11-20T05:20:02;4.70;;;3.00;;
75887;SDS011;64562;55.662;37.300;2022-11-20T05:22:29;4.85;;;3.00;;
75887;SDS011;64562;55.662;37.300;2022-11-20T05:24:56;4.75;;;2.80;;
75887;SDS011;64562;55.662;37.300;2022-11-20T05:27:23;4.30;;;2.70;;
75887;SDS011;64562;55.662;37.300;2022-11-20T05:29:49;6.75;;;2.72;;
75887;SDS011;64562;55.662;37.300;2022-11-20T05:32:16;5.68;;;2.95;;
75887;SDS011;64562;55.662;37.300;2022-11-20T05:34:44;3.80;;;2.85;;
75887;SDS011;64562;55.662;37.300;2022-11-20T05:37:10;4.05;;;2.70;;
75887;SDS011;64562;55.662;37.300;2022-11-20T05:39:37;5.22;;;3.30;;
75887;SDS011;64562;55.662;37.300;2022-11-20T05:42:04;4.95;;;2.92;;
75887;SDS011;64562;55.662;37.300;2022-11-20T05:44:47;4.38;;;2.72;;
75887;SDS011;64562;55.662;37.300;2022-11-20T05:47:14;4.10;;;2.90;;
75887;SDS011;64562;55.662;37.300;2022-11-20T05:49:41;6.40;;;2.70;;
75887;SDS011;64562;55.662;37.300;2022-11-20T05:52:09;4.18;;;2.80;;
75887;SDS011;64562;55.662;37.300;2022-11-20T05:54:36;4.55;;;3.13;;
75887;SDS011;64562;55.662;37.300;2022-11-20T05:57:03;4.50;;;3.40;;
75887;SDS011;64562;55.662;37.300;2022-11-20T05:59:30;5.07;;;3.30;;
75887;SDS011;64562;55.662;37.300;2022-11-20T06:01:56;4.70;;;2.80;;
75887;SDS011;64562;55.662;37.300;2022-11-20T06:04:23;5.75;;;3.03;;
75887;SDS011;64562;55.662;37.300;2022-11-20T06:06:50;4.55;;;3.00;;
75887;SDS011;64562;55.662;37.300;2022-11-20T06:09:18;4.85;;;3.30;;
75887;SDS011;64562;55.662;37.300;2022-11-20T06:11:44;3.88;;;3.00;;
75887;SDS011;64562;55.662;37.300;2022-11-20T06:14:11;4.60;;;3.13;;
75887;SDS011;64562;55.662;37.300;2022-11-20T06:16:37;5.97;;;3.08;;
75887;SDS011;64562;55.662;37.300;2022-11-20T06:19:04;5.60;;;3.00;;
75887;SDS011;64562;55.662;37.300;2022-11-20T06:21:31;5.55;;;3.08;;
75887;SDS011;64562;55.662;37.300;2022-11-20T06:23:57;4.97;;;3.00;;
75887;SDS011;64562;55.662;37.300;2022-11-20T06:26:26;4.63;;;3.10;;
75887;SDS011;64562;55.662;37.300;2022-11-20T06:28:53;4.70;;;2.85;;
75887;SDS011;64562;55.662;37.300;2022-11-20T06:31:22;4.55;;;3.10;;
75887;SDS011;64562;55.662;37.300;2022-11-20T06:33:49;4.72;;;2.78;;
75887;SDS011;64562;55.662;37.300;2022-11-20T06:36:17;5.15;;;3.08;;
75887;SDS011;64562;55.662;37.300;2022-11-20T06:38:44;4.93;;;3.05;;
75887;SDS011;64562;55.662;37.300;2022-11-20T06:41:11;4.93;;;3.28;;
75887;SDS011;64562;55.662;37.300;2022-11-20T06:43:39;5.22;;;2.70;;
75887;SDS011;64562;55.662;37.300;2022-11-20T06:46:06;4.50;;;3.17;;
75887;SDS011;64562;55.662;37.300;2022-11-20T06:48:32;7.25;;;3.67;;
75887;SDS011;64562;55.662;37.300;2022-11-20T06:50:59;5.97;;;3.38;;
75887;SDS011;64562;55.662;37.300;2022-11-20T06:53:26;4.65;;;3.15;;
75887;SDS011;64562;55.662;37.300;2022-11-20T06:55:55;5.93;;;3.45;;
75887;SDS011;64562;55.662;37.300;2022-11-20T06:58:21;5.55;;;3.20;;
75887;SDS011;64562;55.662;37.300;2022-11-20T07:00:49;5.82;;;3.13;;
75887;SDS011;64562;55.662;37.300;2022-11-20T07:03:16;5.30;;;2.85;;
75887;SDS011;64562;55.662;37.300;2022-11-20T07:05:43;4.88;;;2.80;;
75887;SDS011;64562;55.662;37.300;2022-11-20T07:08:11;5.72;;;3.20;;
75887;SDS011;64562;55.662;37.300;2022-11-20T07:10:37;4.22;;;2.80;;
75887;SDS011;64562;55.662;37.300;2022-11-20T07:13:04;6.50;;;3.00;;
75887;SDS011;64562;55.662;37.300;2022-11-20T07:15:32;4.63;;;3.00;;
75887;SDS011;64562;55.662;37.300;2022-11-20T07:18:00;5.38;;;3.20;;
75887;SDS011;64562;55.662;37.300;2022-11-20T07:20:27;5.28;;;3.33;;
75887;SDS011;64562;55.662;37.300;2022-11-20T07:22:54;4.05;;;3.10;;
75887;SDS011;64562;55.662;37.300;2022-11-20T07:25:21;4.25;;;2.88;;
75887;SDS011;64562;55.662;37.300;2022-11-20T07:27:47;8.38;;;3.55;;
75887;SDS011;64562;55.662;37.300;2022-11-20T07:30:14;8.27;;;3.78;;
75887;SDS011;64562;55.662;37.300;2022-11-20T07:32:41;5.90;;;3.22;;
75887;SDS011;64562;55.662;37.300;2022-11-20T07:35:09;4.82;;;3.17;;
75887;SDS011;64562;55.662;37.300;2022-11-20T07:37:35;5.55;;;3.50;;
75887;SDS011;64562;55.662;37.300;2022-11-20T07:40:02;6.38;;;3.47;;
75887;SDS011;64562;55.662;37.300;2022-11-20T07:42:29;6.10;;;3.55;;
75887;SDS011;64562;55.662;37.300;2022-11-20T07:44:56;5.10;;;3.47;;
75887;SDS011;64562;55.662;37.300;2022-11-20T07:47:23;5.30;;;3.17;;
75887;SDS011;64562;55.662;37.300;2022-11-20T07:49:50;5.70;;;3.80;;
75887;SDS011;64562;55.662;37.300;2022-11-20T07:52:18;6.10;;;3.40;;
75887;SDS011;64562;55.662;37.300;2022-11-20T07:54:44;6.45;;;4.00;;
75887;SDS011;64562;55.662;37.300;2022-11-20T07:57:11;6.40;;;3.72;;
75887;SDS011;64562;55.662;37.300;2022-11-20T07:59:37;6.20;;;3.70;;
75887;SDS011;64562;55.662;37.300;2022-11-20T08:02:05;8.20;;;4.32;;
75887;SDS011;64562;55.662;37.300;2022-11-20T08:04:31;5.63;;;3.60;;
75887;SDS011;64562;55.662;37.300;2022-11-20T08:06:58;6.38;;;3.70;;
75887;SDS011;64562;55.662;37.300;2022-11-20T08:09:26;5.68;;;3.65;;
75887;SDS011;64562;55.662;37.300;2022-11-20T08:11:53;9.07;;;4.05;;
75887;SDS011;64562;55.662;37.300;2022-11-20T08:14:38;5.95;;;3.67;;
75887;SDS011;64562;55.662;37.300;2022-11-20T08:17:04;5.05;;;3.42;;
75887;SDS011;64562;55.662;37.300;2022-11-20T08:19:31;7.50;;;3.90;;
75887;SDS011;64562;55.662;37.300;2022-11-20T08:21:57;6.50;;;3.72;;
75887;SDS011;64562;55.662;37.300;2022-11-20T08:24:25;5.90;;;3.78;;
75887;SDS011;64562;55.662;37.300;2022-11-20T08:26:52;7.47;;;4.63;;
75887;SDS011;64562;55.662;37.300;2022-11-20T08:29:19;7.20;;;3.72;;
75887;SDS011;64562;55.662;37.300;2022-11-20T08:31:45;6.50;;;4.22;;
75887;SDS011;64562;55.662;37.300;2022-11-20T08:34:12;8.18;;;4.00;;
75887;SDS011;64562;55.662;37.300;2022-11-20T08:36:39;6.65;;;4.38;;
75887;SDS011;64562;55.662;37.300;2022-11-20T08:39:05;8.18;;;4.53;;
75887;SDS011;64562;55.662;37.300;2022-11-20T08:41:33;6.20;;;4.13;;
75887;SDS011;64562;55.662;37.300;2022-11-20T08:44:02;9.57;;;4.18;;
75887;SDS011;64562;55.662;37.300;2022-11-20T08:46:31;9.10;;;4.18;;
75887;SDS011;64562;55.662;37.300;2022-11-20T08:48:59;6.80;;;3.92;;
75887;SDS011;64562;55.662;37.300;2022-11-20T08:51:26;8.85;;;4.10;;
75887;SDS011;64562;55.662;37.300;2022-11-20T08:53:52;8.82;;;4.38;;
75887;SDS011;64562;55.662;37.300;2022-11-20T08:56:19;8.25;;;4.10;;
75887;SDS011;64562;55.662;37.300;2022-11-20T08:58:47;7.05;;;3.90;;
75887;SDS011;64562;55.662;37.300;2022-11-20T09:01:14;6.63;;;4.20;;
75887;SDS011;64562;55.662;37.300;2022-11-20T09:03:40;8.38;;;3.88;;
75887;SDS011;64562;55.662;37.300;2022-11-20T09:06:07;7.53;;;4.38;;
75887;SDS011;64562;55.662;37.300;2022-11-20T09:08:34;8.45;;;4.00;;
75887;SDS011;64562;55.662;37.300;2022-11-20T09:11:01;7.03;;;4.32;;
75887;SDS011;64562;55.662;37.300;2022-11-20T09:13:28;7.68;;;3.95;;
75887;SDS011;64562;55.662;37.300;2022-11-20T09:15:57;9.82;;;4.30;;
75887;SDS011;64562;55.662;37.300;2022-11-20T09:18:24;9.00;;;4.13;;
75887;SDS011;64562;55.662;37.300;2022-11-20T09:20:51;7.45;;;4.40;;
75887;SDS011;64562;55.662;37.300;2022-11-20T09:23:18;6.30;;;3.90;;
75887;SDS011;64562;55.662;37.300;2022-11-20T09:25:45;9.65;;;4.45;;
75887;SDS011;64562;55.662;37.300;2022-11-20T09:28:11;8.13;;;4.80;;
75887;SDS011;64562;55.662;37.300;2022-11-20T09:30:38;7.65;;;4.57;;
75887;SDS011;64562;55.662;37.300;2022-11-20T09:33:06;6.95;;;4.18;;
75887;SDS011;64562;55.662;37.300;2022-11-20T09:35:33;10.10;;;4.40;;
75887;SDS011;64562;55.662;37.300;2022-11-20T09:38:04;7.05;;;4.63;;
75887;SDS011;64562;55.662;37.300;2022-11-20T09:40:31;8.85;;;4.95;;
75887;SDS011;64562;55.662;37.300;2022-11-20T09:42:59;10.20;;;4.80;;
75887;SDS011;64562;55.662;37.300;2022-11-20T09:45:36;11.00;;;4.85;;
75887;SDS011;64562;55.662;37.300;2022-11-20T09:48:16;8.77;;;4.35;;
75887;SDS011;64562;55.662;37.300;2022-11-20T09:50:45;11.65;;;5.30;;
75887;SDS011;64562;55.662;37.300;2022-11-20T09:53:16;8.10;;;5.30;;
75887;SDS011;64562;55.662;37.300;2022-11-20T09:55:46;24.42;;;7.97;;
75887;SDS011;64562;55.662;37.300;2022-11-20T09:58:15;43.88;;;13.27;;
75887;SDS011;64562;55.662;37.300;2022-11-20T10:00:42;63.15;;;17.50;;
75887;SDS011;64562;55.662;37.300;2022-11-20T10:03:11;70.35;;;24.48;;
75887;SDS011;64562;55.662;37.300;2022-11-20T10:05:41;66.28;;;26.48;;
75887;SDS011;64562;55.662;37.300;2022-11-20T10:08:10;36.22;;;14.80;;
75887;SDS011;64562;55.662;37.300;2022-11-20T10:10:41;31.42;;;12.23;;
75887;SDS011;64562;55.662;37.300;2022-11-20T10:13:17;27.13;;;10.35;;
75887;SDS011;64562;55.662;37.300;2022-11-20T10:15:50;18.65;;;8.57;;
75887;SDS011;64562;55.662;37.300;2022-11-20T10:18:22;15.75;;;7.60;;
75887;SDS011;64562;55.662;37.300;2022-11-20T10:20:52;16.75;;;7.72;;
75887;SDS011;64562;55.662;37.300;2022-11-20T10:23:29;14.27;;;7.22;;
75887;SDS011;64562;55.662;37.300;2022-11-20T10:26:01;14.90;;;7.32;;
75887;SDS011;64562;55.662;37.300;2022-11-20T10:28:30;22.50;;;7.75;;
75887;SDS011;64562;55.662;37.300;2022-11-20T10:31:02;26.27;;;9.93;;
75887;SDS011;64562;55.662;37.300;2022-11-20T10:33:29;20.63;;;10.77;;
75887;SDS011;64562;55.662;37.300;2022-11-20T10:36:00;28.23;;;15.90;;
75887;SDS011;64562;55.662;37.300;2022-11-20T10:38:30;22.77;;;13.32;;
75887;SDS011;64562;55.662;37.300;2022-11-20T10:40:59;20.65;;;10.25;;
75887;SDS011;64562;55.662;37.300;2022-11-20T10:43:41;16.95;;;9.43;;
75887;SDS011;64562;55.662;37.300;2022-11-20T10:46:08;13.68;;;8.00;;
75887;SDS011;64562;55.662;37.300;2022-11-20T10:48:36;14.23;;;7.35;;
75887;SDS011;64562;55.662;37.300;2022-11-20T10:51:15;14.88;;;7.03;;
75887;SDS011;64562;55.662;37.300;2022-11-20T10:53:51;12.25;;;6.53;;
75887;SDS011;64562;55.662;37.300;2022-11-20T10:56:20;11.30;;;6.57;;
75887;SDS011;64562;55.662;37.300;2022-11-20T10:58:52;12.88;;;6.45;;
75887;SDS011;64562;55.662;37.300;2022-11-20T11:01:21;11.75;;;6.75;;
75887;SDS011;64562;55.662;37.300;2022-11-20T11:03:48;15.10;;;6.28;;
75887;SDS011;64562;55.662;37.300;2022-11-20T11:06:17;9.57;;;6.03;;
75887;SDS011;64562;55.662;37.300;2022-11-20T11:08:47;10.23;;;5.85;;
75887;SDS011;64562;55.662;37.300;2022-11-20T11:11:18;9.65;;;6.00;;
75887;SDS011;64562;55.662;37.300;2022-11-20T11:16:16;9.00;;;5.35;;
75887;SDS011;64562;55.662;37.300;2022-11-20T11:18:45;7.95;;;5.20;;
75887;SDS011;64562;55.662;37.300;2022-11-20T11:21:12;9.63;;;4.95;;
75887;SDS011;64562;55.662;37.300;2022-11-20T11:23:41;7.00;;;4.60;;
75887;SDS011;64562;55.662;37.300;2022-11-20T11:26:18;8.23;;;4.60;;
75887;SDS011;64562;55.662;37.300;2022-11-20T11:31:11;7.50;;;4.32;;
75887;SDS011;64562;55.662;37.300;2022-11-20T11:33:48;8.70;;;4.57;;
75887;SDS011;64562;55.662;37.300;2022-11-20T11:36:16;9.48;;;4.97;;
75887;SDS011;64562;55.662;37.300;2022-11-20T11:38:45;8.88;;;4.72;;
75887;SDS011;64562;55.662;37.300;2022-11-20T11:41:12;9.93;;;4.72;;
75887;SDS011;64562;55.662;37.300;2022-11-20T11:43:48;8.90;;;4.68;;
75887;SDS011;64562;55.662;37.300;2022-11-20T11:46:33;10.77;;;5.13;;
75887;SDS011;64562;55.662;37.300;2022-11-20T11:49:08;9.05;;;5.30;;
75887;SDS011;64562;55.662;37.300;2022-11-20T11:51:39;10.27;;;5.18;;
75887;SDS011;64562;55.662;37.300;2022-11-20T11:54:13;11.38;;;5.80;;
75887;SDS011;64562;55.662;37.300;2022-11-20T11:56:41;9.65;;;4.97;;
75887;SDS011;64562;55.662;37.300;2022-11-20T11:59:09;8.60;;;4.75;;
75887;SDS011;64562;55.662;37.300;2022-11-20T12:04:09;7.40;;;4.60;;
75887;SDS011;64562;55.662;37.300;2022-11-20T12:06:39;8.10;;;4.57;;
75887;SDS011;64562;55.662;37.300;2022-11-20T12:09:10;8.40;;;4.45;;
75887;SDS011;64562;55.662;37.300;2022-11-20T12:11:41;8.10;;;4.50;;
75887;SDS011;64562;55.662;37.300;2022-11-20T12:14:10;8.23;;;4.40;;
75887;SDS011;64562;55.662;37.300;2022-11-20T12:16:37;7.13;;;4.32;;
75887;SDS011;64562;55.662;37.300;2022-11-20T12:19:07;7.93;;;4.82;;
75887;SDS011;64562;55.662;37.300;2022-11-20T12:21:35;8.90;;;4.35;;
75887;SDS011;64562;55.662;37.300;2022-11-20T12:24:09;8.85;;;4.90;;
75887;SDS011;64562;55.662;37.300;2022-11-20T12:26:48;8.35;;;4.05;;
75887;SDS011;64562;55.662;37.300;2022-11-20T12:29:18;6.53;;;4.30;;
75887;SDS011;64562;55.662;37.300;2022-11-20T12:31:52;6.57;;;3.90;;
75887;SDS011;64562;55.662;37.300;2022-11-20T12:37:07;6.65;;;3.88;;
75887;SDS011;64562;55.662;37.300;2022-11-20T12:39:35;6.05;;;3.97;;
75887;SDS011;64562;55.662;37.300;2022-11-20T12:42:17;7.95;;;4.20;;
75887;SDS011;64562;55.662;37.300;2022-11-20T12:48:06;6.82;;;4.57;;
75887;SDS011;64562;55.662;37.300;2022-11-20T12:50:43;7.00;;;4.57;;
75887;SDS011;64562;55.662;37.300;2022-11-20T12:53:19;8.55;;;5.00;;
75887;SDS011;64562;55.662;37.300;2022-11-20T12:55:49;6.90;;;4.13;;
75887;SDS011;64562;55.662;37.300;2022-11-20T12:58:20;12.05;;;5.97;;
75887;SDS011;64562;55.662;37.300;2022-11-20T13:00:51;10.98;;;5.38;;
75887;SDS011;64562;55.662;37.300;2022-11-20T13:06:06;7.97;;;4.70;;
75887;SDS011;64562;55.662;37.300;2022-11-20T13:08:37;11.60;;;5.38;;
75887;SDS011;64562;55.662;37.300;2022-11-20T13:11:07;8.07;;;4.75;;
75887;SDS011;64562;55.662;37.300;2022-11-20T13:13:42;7.60;;;5.00;;
75887;SDS011;64562;55.662;37.300;2022-11-20T13:16:13;7.57;;;4.10;;
75887;SDS011;64562;55.662;37.300;2022-11-20T13:18:41;7.20;;;4.55;;
75887;SDS011;64562;55.662;37.300;2022-11-20T13:21:16;6.53;;;4.40;;
75887;SDS011;64562;55.662;37.300;2022-11-20T13:23:43;7.68;;;4.18;;
75887;SDS011;64562;55.662;37.300;2022-11-20T13:26:17;6.97;;;4.93;;
75887;SDS011;64562;55.662;37.300;2022-11-20T13:28:47;8.35;;;5.03;;
75887;SDS011;64562;55.662;37.300;2022-11-20T13:31:30;6.07;;;3.95;;
75887;SDS011;64562;55.662;37.300;2022-11-20T13:33:57;7.70;;;4.25;;
75887;SDS011;64562;55.662;37.300;2022-11-20T13:36:25;7.22;;;4.63;;
75887;SDS011;64562;55.662;37.300;2022-11-20T13:38:53;8.25;;;4.38;;
75887;SDS011;64562;55.662;37.300;2022-11-20T13:41:24;7.25;;;4.20;;
75887;SDS011;64562;55.662;37.300;2022-11-20T13:44:04;6.85;;;4.65;;
75887;SDS011;64562;55.662;37.300;2022-11-20T13:46:35;7.65;;;4.65;;
75887;SDS011;64562;55.662;37.300;2022-11-20T13:49:06;7.85;;;4.25;;
75887;SDS011;64562;55.662;37.300;2022-11-20T13:51:34;6.50;;;4.47;;
75887;SDS011;64562;55.662;37.300;2022-11-20T13:54:14;5.03;;;3.63;;
75887;SDS011;64562;55.662;37.300;2022-11-20T13:56:46;6.82;;;4.00;;
75887;SDS011;64562;55.662;37.300;2022-11-20T13:59:20;6.95;;;3.97;;
75887;SDS011;64562;55.662;37.300;2022-11-20T14:01:51;7.35;;;3.97;;
75887;SDS011;64562;55.662;37.300;2022-11-20T14:04:19;6.45;;;4.20;;
75887;SDS011;64562;55.662;37.300;2022-11-20T14:06:47;8.50;;;4.00;;
75887;SDS011;64562;55.662;37.300;2022-11-20T14:09:25;6.95;;;4.28;;
75887;SDS011;64562;55.662;37.300;2022-11-20T14:11:52;6.82;;;4.10;;
75887;SDS011;64562;55.662;37.300;2022-11-20T14:14:20;8.00;;;4.05;;
75887;SDS011;64562;55.662;37.300;2022-11-20T14:16:48;7.80;;;4.40;;
75887;SDS011;64562;55.662;37.300;2022-11-20T14:22:09;9.20;;;4.22;;
75887;SDS011;64562;55.662;37.300;2022-11-20T14:24:37;8.68;;;4.25;;
75887;SDS011;64562;55.662;37.300;2022-11-20T14:27:04;9.93;;;4.85;;
75887;SDS011;64562;55.662;37.300;2022-11-20T14:29:34;6.82;;;4.40;;
75887;SDS011;64562;55.662;37.300;2022-11-20T14:32:01;12.63;;;4.75;;
75887;SDS011;64562;55.662;37.300;2022-11-20T14:34:30;6.50;;;4.25;;
75887;SDS011;64562;55.662;37.300;2022-11-20T14:36:57;7.72;;;4.38;;
75887;SDS011;64562;55.662;37.300;2022-11-20T14:39:26;5.60;;;3.75;;
75887;SDS011;64562;55.662;37.300;2022-11-20T14:41:53;5.85;;;3.90;;
75887;SDS011;64562;55.662;37.300;2022-11-20T14:44:21;6.40;;;3.85;;
75887;SDS011;64562;55.662;37.300;2022-11-20T14:46:51;6.85;;;3.78;;
75887;SDS011;64562;55.662;37.300;2022-11-20T14:49:18;6.80;;;3.60;;
75887;SDS011;64562;55.662;37.300;2022-11-20T14:51:45;5.43;;;3.80;;
75887;SDS011;64562;55.662;37.300;2022-11-20T14:54:12;7.45;;;3.83;;
75887;SDS011;64562;55.662;37.300;2022-11-20T14:56:40;6.68;;;4.00;;
75887;SDS011;64562;55.662;37.300;2022-11-20T14:59:07;4.78;;;3.20;;